Terminal Aerodrome Forecast
Issued by NWS Houston/Galveston TX

Home | Current Version | Previous Version | Text Only | Print | Product List | Glossary On
Versions: 1 2 3 4 5 6 7 8 9 10 11 12 13 14 15 16 17 18 19 20 21 22 23 24 25 26 27 28 29 30 31 32 33 34 35 36 37 38 39 40 41 42 43 44 45 46 47 48 49 50
857
FTUS44 KHGX 291505 AAB
TAFHOU
TAF AMD
KHOU 291505Z 2915/3012 21007KT P6SM VCSH SCT025 BKN060
      TEMPO 2915/2916 VRB12KT -SHRA
     FM291800 21010KT P6SM BKN050
     FM300000 17007KT P6SM SCT250
      TEMPO 3009/3012 BKN018=

USA.gov is the U.S. government's official web portal to all federal, state and local government web resources and services.